createdAt,value
2023-02-09T00:01:35.252Z,13.80
2023-02-09T00:04:02.726Z,13.07
2023-02-09T00:09:10.799Z,13.45
2023-02-09T00:11:56.685Z,12.93
2023-02-09T00:14:30.805Z,12.40
2023-02-09T00:17:18.757Z,13.63
2023-02-09T00:19:52.696Z,10.73
2023-02-09T00:22:19.870Z,12.70
2023-02-09T00:24:47.114Z,14.07
2023-02-09T00:27:25.293Z,14.45
2023-02-09T00:29:52.430Z,12.13
2023-02-09T00:32:30.782Z,13.30
2023-02-09T00:34:58.049Z,13.80
2023-02-09T00:37:26.739Z,12.63
2023-02-09T00:40:00.752Z,12.60
2023-02-09T00:42:28.199Z,10.25
2023-02-09T00:45:01.921Z,13.38
2023-02-09T00:47:29.126Z,13.55
2023-02-09T00:49:56.201Z,10.40
2023-02-09T00:52:29.759Z,11.13
2023-02-09T00:54:56.948Z,11.70
2023-02-09T00:57:31.064Z,11.95
2023-02-09T00:59:58.256Z,11.45
2023-02-09T01:02:25.461Z,11.45
2023-02-09T01:04:58.788Z,12.68
2023-02-09T01:07:26.136Z,10.82
2023-02-09T01:09:59.813Z,12.52
2023-02-09T01:12:27.123Z,10.93
2023-02-09T01:15:00.771Z,11.90
2023-02-09T01:17:34.822Z,10.60
2023-02-09T01:20:08.860Z,8.32
2023-02-09T01:22:38.890Z,12.50
2023-02-09T01:25:07.390Z,11.27
2023-02-09T01:27:41.870Z,11.10
2023-02-09T01:30:09.320Z,12.07
2023-02-09T01:32:43.787Z,9.98
2023-02-09T01:35:11.070Z,11.73
2023-02-09T01:37:44.864Z,9.65
2023-02-09T01:40:12.270Z,12.43
2023-02-09T01:42:39.811Z,9.93
2023-02-09T01:45:15.834Z,11.32
2023-02-09T01:47:45.080Z,11.82
2023-02-09T01:50:18.740Z,10.27
2023-02-09T01:52:47.531Z,13.35
2023-02-09T01:55:22.738Z,11.50
2023-02-09T01:57:52.609Z,12.57
2023-02-09T02:00:27.931Z,13.30
2023-02-09T02:03:05.013Z,13.00
2023-02-09T02:05:41.914Z,13.40
2023-02-09T02:08:15.401Z,12.13
2023-02-09T02:10:49.037Z,12.85
2023-02-09T02:13:25.913Z,12.88
2023-02-09T02:16:18.895Z,13.20
2023-02-09T02:19:12.754Z,13.57
2023-02-09T02:22:01.900Z,13.70
2023-02-09T02:24:53.569Z,11.77
2023-02-09T02:27:39.877Z,13.10
2023-02-09T02:30:19.658Z,12.57
2023-02-09T02:32:59.840Z,12.15
2023-02-09T02:35:44.681Z,13.48
2023-02-09T02:38:35.574Z,13.40
2023-02-09T02:41:32.681Z,13.10
2023-02-09T02:44:07.981Z,13.60
2023-02-09T02:46:41.735Z,13.55
2023-02-09T02:49:21.568Z,12.57
2023-02-09T02:51:56.696Z,12.20
2023-02-09T02:54:32.241Z,13.85
2023-02-09T02:57:11.729Z,13.88
2023-02-09T02:59:42.658Z,9.63
2023-02-09T03:05:14.774Z,11.73
2023-02-09T03:07:48.697Z,11.05
2023-02-09T03:10:35.394Z,13.93
2023-02-09T03:13:25.265Z,13.98
2023-02-09T03:15:55.648Z,10.50
2023-02-09T03:18:59.832Z,13.77
2023-02-09T03:21:37.063Z,12.77
2023-02-09T03:24:11.716Z,12.60
2023-02-09T03:26:52.785Z,12.77
2023-02-09T03:29:20.645Z,12.63
2023-02-09T03:31:55.891Z,12.68
2023-02-09T03:34:23.088Z,14.48
2023-02-09T03:37:00.932Z,14.63
2023-02-09T03:39:28.128Z,14.32
2023-02-09T03:41:55.309Z,12.85
2023-02-09T03:44:35.856Z,13.13
2023-02-09T03:47:04.146Z,13.43
2023-02-09T03:49:39.866Z,13.30
2023-02-09T03:52:08.065Z,11.98
2023-02-09T03:54:35.649Z,14.07
2023-02-09T03:59:41.004Z,12.65
2023-02-09T04:02:16.527Z,13.98
2023-02-09T04:04:43.772Z,14.93
2023-02-09T04:07:12.129Z,12.93
2023-02-09T04:09:45.815Z,14.07
2023-02-09T04:12:13.005Z,13.88
2023-02-09T04:14:46.947Z,12.95
2023-02-09T04:17:20.777Z,13.25
2023-02-09T04:20:01.025Z,14.88
2023-02-09T04:22:28.112Z,14.82
2023-02-09T04:24:55.339Z,14.63
2023-02-09T04:27:28.781Z,16.27
2023-02-09T04:29:55.862Z,16.10
2023-02-09T04:32:29.840Z,16.17
2023-02-09T04:34:56.978Z,14.23
2023-02-09T04:37:26.953Z,14.93
2023-02-09T04:40:00.862Z,14.70
2023-02-09T04:42:34.798Z,15.45
2023-02-09T04:45:08.919Z,16.45
2023-02-09T04:47:36.018Z,14.77
2023-02-09T04:50:03.238Z,15.32
2023-02-09T04:52:36.795Z,15.98
2023-02-09T04:55:03.986Z,15.40
2023-02-09T04:57:56.933Z,14.88
2023-02-09T05:00:24.045Z,15.02
2023-02-09T05:02:51.270Z,15.27
2023-02-09T05:05:25.785Z,16.73
2023-02-09T05:07:53.008Z,15.43
2023-02-09T05:10:26.920Z,15.63
2023-02-09T05:12:54.072Z,16.20
2023-02-09T05:15:21.166Z,14.05
2023-02-09T05:18:08.785Z,16.05
2023-02-09T05:20:36.562Z,16.45
2023-02-09T05:23:10.828Z,15.55
2023-02-09T05:25:38.211Z,17.67
2023-02-09T05:28:13.070Z,15.48
2023-02-09T05:30:40.351Z,15.15
2023-02-09T05:33:07.521Z,16.08
2023-02-09T05:35:40.843Z,13.43
2023-02-09T05:38:08.102Z,14.98
2023-02-09T05:40:44.151Z,14.23
2023-02-09T05:43:12.271Z,15.82
2023-02-09T05:45:39.526Z,13.70
2023-02-09T05:48:13.978Z,10.60
2023-02-09T05:50:41.195Z,13.90
2023-02-09T05:53:08.974Z,12.10
2023-02-09T05:55:42.834Z,13.13
2023-02-09T05:58:10.082Z,12.77
2023-02-09T06:00:44.294Z,14.15
2023-02-09T06:03:11.552Z,14.38
2023-02-09T06:05:38.784Z,13.32
2023-02-09T06:08:12.816Z,12.07
2023-02-09T06:10:40.036Z,12.27
2023-02-09T06:13:13.937Z,12.55
2023-02-09T06:15:41.102Z,13.32
2023-02-09T06:18:30.995Z,10.20
2023-02-09T06:20:59.107Z,13.38
2023-02-09T06:23:26.342Z,12.10
2023-02-09T06:25:59.882Z,11.60
2023-02-09T06:28:27.239Z,13.13
2023-02-09T06:30:54.933Z,12.10
2023-02-09T06:33:28.833Z,12.25
2023-02-09T06:35:55.981Z,10.95
2023-02-09T06:38:29.877Z,12.30
2023-02-09T06:40:56.944Z,12.60
2023-02-09T06:43:24.154Z,12.15
2023-02-09T06:45:57.898Z,13.25
2023-02-09T06:48:25.154Z,12.60
2023-02-09T06:50:58.978Z,13.48
2023-02-09T06:53:26.314Z,11.05
2023-02-09T06:55:53.530Z,12.88
2023-02-09T06:58:26.858Z,12.60
2023-02-09T07:00:54.006Z,12.60
2023-02-09T07:03:27.811Z,13.80
2023-02-09T07:05:55.034Z,14.73
2023-02-09T07:08:29.952Z,12.32
2023-02-09T07:10:57.178Z,13.30
2023-02-09T07:13:24.533Z,12.52
2023-02-09T07:16:05.097Z,14.60
2023-02-09T07:18:39.163Z,14.60
2023-02-09T07:21:14.872Z,13.25
2023-02-09T07:23:42.116Z,13.63
2023-02-09T07:26:11.287Z,15.18
2023-02-09T07:28:45.937Z,16.75
2023-02-09T07:31:14.956Z,15.05
2023-02-09T07:33:48.832Z,13.88
2023-02-09T07:36:17.058Z,13.82
2023-02-09T07:38:50.938Z,13.80
2023-02-09T07:41:19.884Z,14.32
2023-02-09T07:43:53.949Z,16.67
2023-02-09T07:46:22.271Z,16.25
2023-02-09T07:48:49.943Z,15.38
2023-02-09T07:51:26.833Z,17.13
2023-02-09T07:53:54.182Z,17.88
2023-02-09T07:56:27.999Z,16.20
2023-02-09T07:58:57.280Z,18.45
2023-02-09T08:01:25.081Z,16.10
2023-02-09T08:04:02.178Z,19.80
2023-02-09T08:06:41.566Z,20.40
2023-02-09T08:09:20.721Z,18.98
2023-02-09T08:11:47.831Z,21.13
2023-02-09T08:14:17.064Z,22.95
2023-02-09T08:20:06.607Z,23.15
2023-02-09T08:22:49.955Z,23.10
2023-02-09T08:25:18.435Z,24.25
2023-02-09T08:27:45.801Z,24.38
2023-02-09T08:30:20.959Z,22.63
2023-02-09T08:32:48.210Z,24.95
2023-02-09T08:35:21.846Z,24.85
2023-02-09T08:37:48.972Z,20.58
2023-02-09T08:40:22.942Z,27.13
2023-02-09T08:42:50.070Z,27.15
2023-02-09T08:45:17.299Z,26.92
2023-02-09T08:47:50.856Z,26.23
2023-02-09T08:50:18.094Z,29.13
2023-02-09T08:52:51.964Z,27.95
2023-02-09T08:55:19.123Z,27.60
2023-02-09T08:57:46.315Z,27.88
2023-02-09T09:00:20.927Z,28.17
2023-02-09T09:02:48.107Z,27.52
2023-02-09T09:05:21.990Z,26.15
2023-02-09T09:07:49.145Z,26.90
2023-02-09T09:10:16.360Z,26.70
2023-02-09T09:12:50.889Z,26.00
2023-02-09T09:15:18.175Z,28.63
2023-02-09T09:18:04.909Z,29.95
2023-02-09T09:20:32.154Z,29.40
2023-02-09T09:22:59.535Z,28.63
2023-02-09T09:25:32.884Z,28.70
2023-02-09T09:28:00.127Z,26.67
2023-02-09T09:30:33.939Z,34.10
2023-02-09T09:33:01.344Z,30.10
2023-02-09T09:35:28.703Z,34.15
2023-02-09T09:38:03.852Z,32.65
2023-02-09T09:40:35.572Z,29.85
2023-02-09T09:43:13.857Z,33.70
2023-02-09T09:45:41.524Z,29.58
2023-02-09T09:50:43.561Z,26.67
2023-02-09T09:53:25.925Z,29.40
2023-02-09T09:55:55.312Z,24.50
2023-02-09T09:58:29.878Z,24.60
2023-02-09T10:00:57.305Z,24.13
2023-02-09T10:03:30.889Z,24.38
2023-02-09T10:06:08.886Z,25.55
2023-02-09T10:08:46.988Z,24.02
2023-02-09T10:11:15.323Z,26.63
2023-02-09T10:13:45.334Z,24.60
2023-02-09T10:16:31.883Z,23.17
2023-02-09T10:19:20.813Z,22.38
2023-02-09T10:24:33.407Z,21.10
2023-02-09T10:27:20.862Z,20.70
2023-02-09T10:29:48.039Z,21.55
2023-02-09T10:32:22.967Z,20.00
2023-02-09T10:34:54.277Z,16.80
2023-02-09T10:37:21.379Z,20.65
2023-02-09T10:40:00.963Z,19.73
2023-02-09T10:42:36.807Z,17.75
2023-02-09T10:45:23.004Z,18.00
2023-02-09T10:48:06.929Z,19.00
2023-02-09T10:50:34.240Z,20.75
2023-02-09T10:53:02.981Z,18.80
2023-02-09T10:55:40.883Z,18.60
2023-02-09T10:58:11.381Z,18.40
2023-02-09T11:00:51.113Z,17.83
2023-02-09T11:03:28.795Z,15.63
2023-02-09T11:06:19.353Z,16.85
2023-02-09T11:08:58.806Z,16.35
2023-02-09T11:11:31.195Z,17.38
2023-02-09T11:14:05.034Z,13.65
2023-02-09T11:16:44.755Z,14.43
2023-02-09T11:19:28.807Z,13.20
2023-02-09T11:22:10.175Z,12.63
2023-02-09T11:25:02.890Z,13.25
2023-02-09T11:27:49.094Z,13.15
2023-02-09T11:30:29.961Z,12.52
2023-02-09T11:33:01.549Z,11.73
2023-02-09T11:35:45.938Z,10.77
2023-02-09T11:38:15.829Z,10.02
2023-02-09T11:40:57.858Z,11.25
2023-02-09T11:43:32.109Z,8.35
2023-02-09T11:46:07.937Z,9.27
2023-02-09T11:48:37.792Z,9.25
2023-02-09T11:51:14.831Z,9.02
2023-02-09T11:53:49.008Z,9.98
2023-02-09T11:56:17.629Z,8.70
2023-02-09T11:59:10.033Z,7.85
2023-02-09T12:01:45.431Z,8.45
2023-02-09T12:04:29.032Z,8.68
2023-02-09T12:06:58.021Z,8.85
2023-02-09T12:09:46.040Z,8.35
2023-02-09T12:12:22.142Z,8.55
2023-02-09T12:15:30.951Z,8.98
2023-02-09T12:17:59.773Z,7.88
2023-02-09T12:20:46.178Z,9.55
2023-02-09T12:23:32.508Z,8.93
2023-02-09T12:26:08.048Z,8.68
2023-02-09T12:28:35.247Z,8.90
2023-02-09T12:31:04.666Z,7.80
2023-02-09T12:33:42.992Z,9.00
2023-02-09T12:36:10.157Z,7.85
2023-02-09T12:39:05.649Z,7.50
2023-02-09T12:41:36.299Z,5.38
2023-02-09T12:44:20.239Z,6.82
2023-02-09T12:46:47.485Z,6.68
2023-02-09T12:49:14.591Z,7.13
2023-02-09T12:51:50.031Z,5.70
2023-02-09T12:54:37.912Z,5.60
2023-02-09T12:57:23.911Z,5.33
2023-02-09T12:59:51.283Z,5.95
2023-02-09T13:02:43.938Z,5.32
2023-02-09T13:05:23.185Z,4.60
2023-02-09T13:07:56.988Z,5.95
2023-02-09T13:10:33.382Z,7.03
2023-02-09T13:13:13.091Z,5.85
2023-02-09T13:15:55.321Z,5.65
2023-02-09T13:18:41.966Z,6.25
2023-02-09T13:21:15.919Z,5.93
2023-02-09T13:23:56.067Z,6.82
2023-02-09T13:26:24.440Z,6.97
2023-02-09T13:29:20.541Z,6.85
2023-02-09T13:32:01.159Z,4.38
2023-02-09T13:34:49.930Z,5.60
2023-02-09T13:39:50.981Z,5.47
2023-02-09T13:42:20.211Z,5.30
2023-02-09T13:44:56.907Z,6.45
2023-02-09T13:47:24.257Z,4.97
2023-02-09T13:50:04.160Z,5.30
2023-02-09T13:52:37.681Z,4.40
2023-02-09T13:55:17.173Z,3.80
2023-02-09T13:57:45.845Z,4.00
2023-02-09T14:00:23.978Z,4.80
2023-02-09T14:05:30.046Z,4.75
2023-02-09T14:08:04.037Z,3.88
2023-02-09T14:10:31.916Z,3.83
2023-02-09T14:13:35.073Z,5.28
2023-02-09T14:16:09.953Z,4.05
2023-02-09T14:19:16.915Z,5.78
2023-02-09T14:21:51.132Z,4.95
2023-02-09T14:24:28.986Z,4.85
2023-02-09T14:26:59.588Z,5.57
2023-02-09T14:29:35.948Z,4.20
2023-02-09T14:32:06.961Z,3.42
2023-02-09T14:34:48.022Z,4.40
2023-02-09T14:37:15.259Z,4.22
2023-02-09T14:40:08.935Z,4.80
2023-02-09T14:42:39.413Z,3.67
2023-02-09T14:45:23.217Z,4.68
2023-02-09T14:47:50.404Z,5.55
2023-02-09T14:50:31.052Z,4.32
2023-02-09T14:53:05.374Z,4.90
2023-02-09T14:55:41.959Z,5.47
2023-02-09T14:58:12.884Z,5.28
2023-02-09T15:00:47.005Z,5.28
2023-02-09T15:03:14.162Z,4.03
2023-02-09T15:05:41.777Z,5.97
2023-02-09T15:10:48.162Z,5.80
2023-02-09T15:13:23.174Z,5.65
2023-02-09T15:15:50.632Z,4.55
2023-02-09T15:20:57.996Z,4.43
2023-02-09T15:23:39.000Z,4.90
2023-02-09T15:26:07.126Z,4.22
2023-02-09T15:28:34.413Z,4.10
2023-02-09T15:31:07.894Z,4.57
2023-02-09T15:33:35.100Z,4.80
2023-02-09T15:36:08.993Z,4.75
2023-02-09T15:38:36.934Z,4.97
2023-02-09T15:41:29.105Z,4.80
2023-02-09T15:44:14.932Z,4.13
2023-02-09T15:47:06.886Z,4.72
2023-02-09T15:49:34.071Z,4.47
2023-02-09T15:52:07.885Z,5.68
2023-02-09T15:54:35.278Z,4.43
2023-02-09T15:57:08.867Z,4.28
2023-02-09T15:59:36.031Z,3.50
2023-02-09T16:02:10.129Z,4.78
2023-02-09T16:04:37.292Z,3.97
2023-02-09T16:07:04.447Z,5.00
2023-02-09T16:09:37.974Z,4.82
2023-02-09T16:12:09.862Z,5.95
2023-02-09T16:14:44.062Z,5.40
2023-02-09T16:17:11.242Z,6.70
2023-02-09T16:19:58.084Z,5.32
2023-02-09T16:22:25.331Z,6.40
2023-02-09T16:24:52.581Z,5.15
2023-02-09T16:27:34.949Z,5.60
2023-02-09T16:30:02.353Z,4.68
2023-02-09T16:32:36.090Z,5.60
2023-02-09T16:35:15.691Z,4.85
2023-02-09T16:37:52.057Z,4.93
2023-02-09T16:40:30.316Z,4.63
2023-02-09T16:45:37.939Z,6.60
2023-02-09T16:48:05.596Z,4.60
2023-02-09T16:50:34.385Z,6.63
2023-02-09T16:53:10.242Z,6.10
2023-02-09T16:55:38.010Z,5.45
2023-02-09T16:58:05.903Z,5.50
2023-02-09T17:00:40.989Z,6.00
2023-02-09T17:03:20.938Z,6.82
2023-02-09T17:05:52.142Z,5.03
2023-02-09T17:08:26.898Z,6.20
2023-02-09T17:10:55.454Z,5.50
2023-02-09T17:13:28.927Z,6.38
2023-02-09T17:15:59.478Z,4.18
2023-02-09T17:18:28.324Z,6.35
2023-02-09T17:21:02.969Z,6.32
2023-02-09T17:23:30.384Z,4.07
2023-02-09T17:25:57.483Z,4.93
2023-02-09T17:28:32.013Z,5.25
2023-02-09T17:31:03.418Z,4.22
2023-02-09T17:33:38.961Z,4.88
2023-02-09T17:39:01.004Z,3.53
2023-02-09T17:41:28.414Z,7.05
2023-02-09T17:44:18.851Z,5.22
2023-02-09T17:46:49.644Z,5.47
2023-02-09T17:51:51.501Z,5.78
2023-02-09T17:54:19.775Z,5.55
2023-02-09T17:56:53.996Z,5.20
2023-02-09T17:59:21.325Z,6.78
2023-02-09T18:02:01.998Z,5.47
2023-02-09T18:04:30.831Z,6.05
2023-02-09T18:07:05.013Z,5.85
2023-02-09T18:09:32.383Z,5.45
2023-02-09T18:12:09.978Z,6.53
2023-02-09T18:14:37.158Z,5.03
2023-02-09T18:17:11.271Z,5.78
2023-02-09T18:19:58.911Z,5.07
2023-02-09T18:22:34.041Z,4.63
2023-02-09T18:25:08.063Z,5.88
2023-02-09T18:27:35.157Z,5.30
2023-02-09T18:30:08.958Z,5.65
2023-02-09T18:32:36.190Z,4.63
2023-02-09T18:35:03.407Z,4.90
2023-02-09T18:37:36.922Z,4.30
2023-02-09T18:40:04.323Z,5.88
2023-02-09T18:42:38.087Z,6.40
2023-02-09T18:45:05.488Z,5.15
2023-02-09T18:47:32.742Z,4.13
2023-02-09T18:50:05.917Z,5.45
2023-02-09T18:52:34.699Z,6.93
2023-02-09T18:55:09.078Z,7.50
2023-02-09T18:57:36.499Z,7.43
2023-02-09T19:00:04.881Z,4.45
2023-02-09T19:02:39.355Z,5.43
2023-02-09T19:05:06.889Z,6.10
2023-02-09T19:10:11.162Z,5.15
2023-02-09T19:12:39.607Z,4.28
2023-02-09T19:15:06.734Z,5.53
2023-02-09T19:17:41.028Z,5.78
2023-02-09T19:20:35.928Z,5.00
2023-02-09T19:23:10.036Z,5.93
2023-02-09T19:25:37.349Z,4.80
2023-02-09T19:28:04.509Z,5.07
2023-02-09T19:30:38.085Z,6.25
2023-02-09T19:33:05.358Z,4.95
2023-02-09T19:35:39.073Z,5.32
2023-02-09T19:38:06.161Z,3.65
2023-02-09T19:40:36.622Z,4.00
2023-02-09T19:43:12.025Z,3.17
2023-02-09T19:45:39.345Z,4.65
2023-02-09T19:48:14.026Z,4.13
2023-02-09T19:50:41.372Z,3.50
2023-02-09T19:53:15.196Z,2.70
2023-02-09T19:55:47.607Z,4.18
2023-02-09T19:58:22.040Z,4.22
2023-02-09T20:00:56.100Z,3.58
2023-02-09T20:03:24.252Z,3.25
2023-02-09T20:05:51.735Z,4.35
2023-02-09T20:10:52.152Z,3.00
2023-02-09T20:13:19.401Z,4.97
2023-02-09T20:15:52.999Z,4.85
2023-02-09T20:18:20.452Z,5.35
2023-02-09T20:23:21.356Z,4.47
2023-02-09T20:25:55.138Z,5.25
2023-02-09T20:28:22.416Z,3.65
2023-02-09T20:33:24.110Z,4.15
2023-02-09T20:35:51.435Z,3.88
2023-02-09T20:38:40.015Z,4.35
2023-02-09T20:41:18.075Z,2.70
2023-02-09T20:44:11.039Z,4.35
2023-02-09T20:46:56.409Z,4.22
2023-02-09T20:49:32.012Z,4.43
2023-02-09T20:51:59.232Z,2.50
2023-02-09T20:54:34.246Z,4.20
2023-02-09T20:57:01.420Z,3.15
2023-02-09T20:59:28.809Z,3.90
2023-02-09T21:02:02.018Z,3.42
2023-02-09T21:04:30.302Z,4.25
2023-02-09T21:07:05.155Z,3.28
2023-02-09T21:09:32.321Z,3.38
2023-02-09T21:11:59.445Z,3.85
2023-02-09T21:14:41.861Z,4.50
2023-02-09T21:17:10.078Z,3.30
2023-02-09T21:19:44.196Z,3.28
2023-02-09T21:22:18.018Z,3.78
2023-02-09T21:24:52.151Z,2.00
2023-02-09T21:27:25.940Z,2.15
2023-02-09T21:30:00.049Z,2.75
2023-02-09T21:32:33.977Z,2.83
2023-02-09T21:35:08.253Z,2.50
2023-02-09T21:37:35.435Z,1.38
2023-02-09T21:40:03.098Z,1.98
2023-02-09T21:42:38.131Z,1.70
2023-02-09T21:45:07.664Z,3.08
2023-02-09T21:47:43.087Z,2.60
2023-02-09T21:50:11.718Z,2.63
2023-02-09T21:52:38.808Z,2.22
2023-02-09T21:55:15.014Z,2.28
2023-02-09T21:57:42.179Z,2.22
2023-02-09T22:00:16.058Z,2.63
2023-02-09T22:02:43.292Z,2.70
2023-02-09T22:05:10.456Z,2.35
2023-02-09T22:07:44.118Z,2.22
2023-02-09T22:10:11.704Z,3.28
2023-02-09T22:15:13.355Z,2.13
2023-02-09T22:17:40.568Z,2.58
2023-02-09T22:20:21.054Z,2.20
2023-02-09T22:22:54.950Z,2.45
2023-02-09T22:25:29.227Z,2.75
2023-02-09T22:27:56.545Z,2.50
2023-02-09T22:30:24.058Z,3.28
2023-02-09T22:35:25.365Z,2.72
2023-02-09T22:37:59.221Z,2.65
2023-02-09T22:40:26.408Z,2.78
2023-02-09T22:42:53.526Z,3.30
2023-02-09T22:45:27.104Z,3.28
2023-02-09T22:47:54.348Z,2.88
2023-02-09T22:50:27.964Z,3.30
2023-02-09T22:52:55.377Z,2.63
2023-02-09T22:55:30.117Z,3.05
2023-02-09T22:57:57.392Z,3.08
2023-02-09T23:00:24.561Z,3.15
2023-02-09T23:02:57.992Z,2.60
2023-02-09T23:05:25.420Z,2.53
2023-02-09T23:07:58.992Z,2.58
2023-02-09T23:10:26.236Z,2.10
2023-02-09T23:12:59.973Z,2.03
2023-02-09T23:15:27.080Z,3.17
2023-02-09T23:18:01.127Z,2.67
2023-02-09T23:20:35.062Z,3.03
2023-02-09T23:23:18.103Z,3.13
2023-02-09T23:25:45.429Z,2.33
2023-02-09T23:28:12.867Z,3.15
2023-02-09T23:30:47.341Z,3.65
2023-02-09T23:33:14.928Z,2.95
2023-02-09T23:36:02.131Z,2.17
2023-02-09T23:38:29.432Z,2.72
2023-02-09T23:40:56.550Z,2.72
2023-02-09T23:43:30.055Z,2.40
2023-02-09T23:45:57.343Z,2.67
2023-02-09T23:48:31.241Z,3.10
2023-02-09T23:51:02.169Z,2.67
2023-02-09T23:53:29.736Z,2.80
2023-02-09T23:58:39.019Z,2.22
